Rouen Airport

Airport
ICAO code: 
LFOP
IATA Code: 
URO
Summary
ICAO Region: 
EUR
Territory: 
Location: 
, Haute-Normandie
Serving: 
Rouen
Elevation: 
512 ft
Coordinates: 
Aerial View: 
49° 23' 3.019" N, 1° 10' 29.28" E
Metar
Observation
LFOP 302100Z AUTO 22017KT 9999 OVC013 08/07 Q1012 TEMPO 2500 DZRA OVC003 BECMG 22017G27KT
Station
Rouen
Date/Time
2021-11-30 21:00:00
Wind direction
220°
Wind speed
17 kts
Lowest cloud amount
overcast
Temperature
8°C
Dew point
7°C
Humidity
93%
QNH
1012 hPa
Weather condition
n/a

Runways

Designator Length Width Surface Rops
5/23 0 0 UNK No/No
4/22 1700 45 ASP Yes/Yes
Airport map: 
Aerial View: 

SKYbrary Partners:

Safety knowledge contributed by: